createdAt,value
2017-08-26T00:04:36.272Z,78.30
2017-08-26T00:09:42.884Z,78.10
2017-08-26T00:12:13.294Z,78.10
2017-08-26T00:14:43.685Z,77.30
2017-08-26T00:17:14.439Z,76.10
2017-08-26T00:19:44.944Z,75.70
2017-08-26T00:22:15.428Z,75.70
2017-08-26T00:24:45.939Z,76.10
2017-08-26T00:27:16.526Z,76.00
2017-08-26T00:29:47.018Z,75.70
2017-08-26T00:32:17.591Z,75.30
2017-08-26T00:34:47.979Z,75.40
2017-08-26T00:37:18.484Z,74.70
2017-08-26T00:39:48.950Z,74.20
2017-08-26T00:42:19.343Z,73.70
2017-08-26T00:44:49.823Z,73.30
2017-08-26T00:47:20.414Z,72.50
2017-08-26T00:49:51.035Z,72.00
2017-08-26T00:52:21.644Z,71.60
2017-08-26T00:54:52.152Z,71.60
2017-08-26T00:57:22.606Z,72.00
2017-08-26T00:59:53.273Z,70.10
2017-08-26T01:02:23.716Z,68.20
2017-08-26T01:04:54.329Z,64.70
2017-08-26T01:07:29.875Z,64.30
2017-08-26T01:10:00.518Z,64.80
2017-08-26T01:12:31.151Z,65.20
2017-08-26T01:15:01.776Z,64.50
2017-08-26T01:17:32.174Z,63.80
2017-08-26T01:20:02.653Z,61.40
2017-08-26T01:22:33.119Z,62.90
2017-08-26T01:25:03.503Z,62.90
2017-08-26T01:27:34.336Z,63.80
2017-08-26T01:30:04.912Z,64.90
2017-08-26T01:32:35.458Z,64.90
2017-08-26T01:35:05.986Z,64.90
2017-08-26T01:37:36.570Z,66.20
2017-08-26T01:40:07.212Z,67.80
2017-08-26T01:42:37.669Z,67.80
2017-08-26T01:45:08.120Z,66.90
2017-08-26T01:47:38.643Z,67.70
2017-08-26T01:50:09.108Z,68.40
2017-08-26T01:52:39.534Z,68.20
2017-08-26T01:55:09.970Z,68.60
2017-08-26T01:57:40.588Z,68.20
2017-08-26T02:00:11.148Z,66.30
2017-08-26T02:02:41.770Z,64.30
2017-08-26T02:05:12.401Z,63.10
2017-08-26T02:07:42.938Z,63.00
2017-08-26T02:10:13.476Z,62.40
2017-08-26T02:12:43.899Z,61.80
2017-08-26T02:15:14.398Z,62.00
2017-08-26T02:17:44.819Z,63.20
2017-08-26T02:20:15.325Z,64.00
2017-08-26T02:22:45.808Z,64.20
2017-08-26T02:25:16.436Z,64.00
2017-08-26T02:27:47.012Z,64.60
2017-08-26T02:30:17.645Z,65.20
2017-08-26T02:32:48.077Z,66.10
2017-08-26T02:35:18.532Z,66.60
2017-08-26T02:37:49.896Z,66.50
2017-08-26T02:40:20.505Z,66.30
2017-08-26T02:42:57.109Z,64.90
2017-08-26T02:45:28.838Z,64.20
2017-08-26T02:47:59.412Z,64.20
2017-08-26T02:50:29.804Z,64.50
2017-08-26T02:53:00.274Z,64.20
2017-08-26T02:55:30.707Z,64.60
2017-08-26T02:58:01.012Z,63.80
2017-08-26T03:00:31.648Z,63.90
2017-08-26T03:03:02.130Z,62.90
2017-08-26T03:05:32.488Z,62.10
2017-08-26T03:08:02.860Z,62.10
2017-08-26T03:10:33.214Z,61.60
2017-08-26T03:13:03.764Z,62.10
2017-08-26T03:15:34.292Z,62.50
2017-08-26T03:18:04.929Z,62.20
2017-08-26T03:20:35.469Z,63.30
2017-08-26T03:23:06.550Z,63.60
2017-08-26T03:25:37.167Z,63.60
2017-08-26T03:28:07.910Z,65.00
2017-08-26T03:30:38.296Z,63.80
2017-08-26T03:33:09.302Z,62.80
2017-08-26T03:35:40.474Z,62.10
2017-08-26T03:38:10.959Z,61.10
2017-08-26T03:40:42.366Z,60.80
2017-08-26T03:43:13.030Z,62.10
2017-08-26T03:45:45.240Z,62.30
2017-08-26T03:48:16.173Z,62.20
2017-08-26T03:50:50.736Z,63.80
2017-08-26T03:53:21.581Z,69.40
2017-08-26T03:55:52.123Z,72.40
2017-08-26T03:58:22.690Z,74.80
2017-08-26T04:00:53.207Z,78.30
2017-08-26T04:03:23.614Z,79.20
2017-08-26T04:05:54.324Z,80.40
2017-08-26T04:08:24.874Z,83.10
2017-08-26T04:10:55.421Z,86.00
2017-08-26T04:13:26.066Z,83.70
2017-08-26T04:15:56.693Z,79.10
2017-08-26T04:18:27.320Z,83.50
2017-08-26T04:20:58.001Z,86.80
2017-08-26T04:23:28.598Z,90.00
2017-08-26T04:25:59.074Z,90.60
2017-08-26T04:28:30.203Z,90.40
2017-08-26T04:31:00.768Z,90.40
2017-08-26T04:33:32.031Z,90.00
2017-08-26T04:36:02.516Z,89.30
2017-08-26T04:38:33.115Z,90.30
2017-08-26T04:41:03.689Z,90.30
2017-08-26T04:43:34.358Z,89.10
2017-08-26T04:46:04.920Z,89.80
2017-08-26T04:48:36.695Z,90.00
2017-08-26T04:51:07.306Z,89.70
2017-08-26T04:53:37.738Z,89.70
2017-08-26T04:56:08.256Z,88.80
2017-08-26T04:58:38.699Z,88.70
2017-08-26T05:01:09.069Z,88.10
2017-08-26T05:03:39.540Z,90.10
2017-08-26T05:06:10.411Z,90.40
2017-08-26T05:08:40.956Z,90.40
2017-08-26T05:11:11.374Z,90.60
2017-08-26T05:13:41.779Z,89.60
2017-08-26T05:16:12.350Z,89.50
2017-08-26T05:18:42.812Z,89.90
2017-08-26T05:21:13.385Z,90.20
2017-08-26T05:23:44.002Z,90.80
2017-08-26T05:26:14.637Z,90.80
2017-08-26T05:28:45.516Z,90.90
2017-08-26T05:31:16.073Z,90.40
2017-08-26T05:33:46.573Z,90.30
2017-08-26T05:36:16.992Z,88.50
2017-08-26T05:38:47.451Z,88.90
2017-08-26T05:41:17.834Z,89.30
2017-08-26T05:43:48.422Z,88.80
2017-08-26T05:46:19.006Z,89.60
2017-08-26T05:48:49.375Z,89.70
2017-08-26T05:51:19.925Z,90.00
2017-08-26T05:53:50.657Z,90.00
2017-08-26T05:56:21.029Z,89.80
2017-08-26T05:58:51.600Z,89.30
2017-08-26T06:01:22.914Z,90.20
2017-08-26T06:03:53.343Z,90.20
2017-08-26T06:06:23.745Z,90.70
2017-08-26T06:08:54.195Z,90.60
2017-08-26T06:11:24.714Z,90.60
2017-08-26T06:13:55.247Z,90.60
2017-08-26T06:16:25.778Z,90.80
2017-08-26T06:18:56.274Z,90.80
2017-08-26T06:21:27.416Z,90.40
2017-08-26T06:23:58.680Z,90.10
2017-08-26T06:26:29.312Z,90.10
2017-08-26T06:29:00.127Z,90.20
2017-08-26T06:31:31.002Z,90.10
2017-08-26T06:34:01.491Z,89.90
2017-08-26T06:36:32.066Z,89.80
2017-08-26T06:39:02.690Z,89.20
2017-08-26T06:41:33.011Z,88.50
2017-08-26T06:44:03.505Z,88.00
2017-08-26T06:46:34.036Z,88.60
2017-08-26T06:49:04.416Z,88.10
2017-08-26T06:51:34.938Z,88.50
2017-08-26T06:54:05.427Z,88.70
2017-08-26T06:56:36.016Z,88.50
2017-08-26T06:59:06.628Z,88.80
2017-08-26T07:01:37.264Z,89.10
2017-08-26T07:04:07.896Z,88.80
2017-08-26T07:06:38.446Z,89.20
2017-08-26T07:09:08.899Z,88.20
2017-08-26T07:11:39.268Z,88.20
2017-08-26T07:14:09.800Z,88.80
2017-08-26T07:16:40.227Z,89.50
2017-08-26T07:19:10.681Z,89.30
2017-08-26T07:21:41.188Z,90.20
2017-08-26T07:24:13.263Z,90.50
2017-08-26T07:26:43.740Z,90.50
2017-08-26T07:29:14.511Z,90.60
2017-08-26T07:31:45.032Z,90.70
2017-08-26T07:34:15.566Z,90.60
2017-08-26T07:36:46.198Z,90.40
2017-08-26T07:39:16.843Z,90.50
2017-08-26T07:41:47.343Z,90.50
2017-08-26T07:44:17.911Z,90.20
2017-08-26T07:46:48.380Z,90.00
2017-08-26T07:49:18.962Z,90.10
2017-08-26T07:51:49.574Z,90.50
2017-08-26T07:54:20.153Z,90.50
2017-08-26T07:56:50.780Z,90.10
2017-08-26T07:59:21.411Z,90.20
2017-08-26T08:01:51.995Z,90.60
2017-08-26T08:04:22.411Z,90.70
2017-08-26T08:06:52.880Z,90.40
2017-08-26T08:09:24.264Z,90.50
2017-08-26T08:11:54.693Z,90.20
2017-08-26T08:14:25.232Z,90.10
2017-08-26T08:16:55.792Z,90.20
2017-08-26T08:19:26.196Z,90.00
2017-08-26T08:21:56.612Z,90.40
2017-08-26T08:24:27.141Z,90.60
2017-08-26T08:26:57.609Z,90.70
2017-08-26T08:29:28.563Z,90.80
2017-08-26T08:31:59.045Z,90.50
2017-08-26T08:34:29.653Z,90.00
2017-08-26T08:37:00.356Z,88.60
2017-08-26T08:39:30.903Z,88.10
2017-08-26T08:42:01.488Z,87.00
2017-08-26T08:44:31.996Z,86.60
2017-08-26T08:47:02.368Z,86.50
2017-08-26T08:49:32.874Z,87.20
2017-08-26T08:52:03.368Z,86.70
2017-08-26T08:54:33.915Z,85.90
2017-08-26T08:57:04.164Z,85.40
2017-08-26T08:59:34.748Z,85.60
2017-08-26T09:02:05.373Z,86.10
2017-08-26T09:04:35.881Z,87.30
2017-08-26T09:07:06.486Z,87.20
2017-08-26T09:09:36.949Z,85.40
2017-08-26T09:12:07.635Z,84.60
2017-08-26T09:14:38.080Z,85.00
2017-08-26T09:17:08.488Z,84.50
2017-08-26T09:19:39.047Z,83.90
2017-08-26T09:22:09.656Z,83.10
2017-08-26T09:24:40.190Z,83.50
2017-08-26T09:27:10.633Z,84.40
2017-08-26T09:29:41.547Z,84.40
2017-08-26T09:32:12.049Z,83.60
2017-08-26T09:34:42.613Z,83.50
2017-08-26T09:37:14.356Z,83.80
2017-08-26T09:39:44.879Z,84.00
2017-08-26T09:42:15.537Z,82.90
2017-08-26T09:44:46.550Z,83.90
2017-08-26T09:47:17.201Z,83.00
2017-08-26T09:49:47.736Z,82.80
2017-08-26T09:52:18.343Z,83.40
2017-08-26T09:54:48.999Z,84.30
2017-08-26T09:57:19.494Z,85.50
2017-08-26T09:59:50.057Z,86.20
2017-08-26T10:02:20.591Z,86.10
2017-08-26T10:04:51.240Z,85.90
2017-08-26T10:07:21.722Z,85.60
2017-08-26T10:09:52.123Z,86.30
2017-08-26T10:12:22.596Z,88.00
2017-08-26T10:14:53.145Z,86.70
2017-08-26T10:17:23.631Z,86.10
2017-08-26T10:19:54.170Z,87.50
2017-08-26T10:22:24.787Z,88.20
2017-08-26T10:24:55.290Z,88.40
2017-08-26T10:27:25.916Z,90.00
2017-08-26T10:29:56.901Z,90.50
2017-08-26T10:32:27.662Z,91.00
2017-08-26T10:34:58.934Z,91.20
2017-08-26T10:37:29.791Z,90.80
2017-08-26T10:40:00.492Z,91.70
2017-08-26T10:42:31.372Z,91.20
2017-08-26T10:45:02.148Z,90.80
2017-08-26T10:47:32.887Z,90.90
2017-08-26T10:50:03.699Z,90.30
2017-08-26T10:52:35.292Z,89.80
2017-08-26T10:55:05.759Z,89.90
2017-08-26T10:57:36.211Z,89.10
2017-08-26T11:00:06.911Z,89.10
2017-08-26T11:02:37.544Z,88.00
2017-08-26T11:05:08.225Z,88.80
2017-08-26T11:07:38.729Z,89.20
2017-08-26T11:10:09.448Z,89.60
2017-08-26T11:12:39.896Z,90.10
2017-08-26T11:15:10.451Z,90.30
2017-08-26T11:17:41.004Z,89.70
2017-08-26T11:20:11.654Z,89.40
2017-08-26T11:22:42.238Z,90.30
2017-08-26T11:25:12.805Z,90.50
2017-08-26T11:27:43.473Z,90.30
2017-08-26T11:30:14.508Z,90.10
2017-08-26T11:32:45.344Z,90.10
2017-08-26T11:35:15.973Z,90.10
2017-08-26T11:37:47.281Z,90.30
2017-08-26T11:40:17.790Z,90.30
2017-08-26T11:42:48.551Z,90.50
2017-08-26T11:45:19.292Z,90.50
2017-08-26T11:47:49.922Z,90.70
2017-08-26T11:50:20.627Z,91.00
2017-08-26T11:52:51.242Z,91.30
2017-08-26T11:55:21.706Z,91.30
2017-08-26T11:57:52.094Z,91.50
2017-08-26T12:00:23.276Z,91.40
2017-08-26T12:02:54.470Z,91.40
2017-08-26T12:05:25.558Z,91.60
2017-08-26T12:07:56.290Z,91.70
2017-08-26T12:10:27.115Z,91.70
2017-08-26T12:12:57.623Z,91.90
2017-08-26T12:15:28.838Z,91.60
2017-08-26T12:17:58.981Z,91.60
2017-08-26T12:20:29.562Z,91.30
2017-08-26T12:23:00.540Z,91.20
2017-08-26T12:25:31.874Z,91.10
2017-08-26T12:28:02.261Z,90.60
2017-08-26T12:30:33.364Z,90.60
2017-08-26T12:33:03.604Z,90.80
2017-08-26T12:35:34.837Z,90.90
2017-08-26T12:38:05.343Z,90.90
2017-08-26T12:40:35.950Z,90.90
2017-08-26T12:43:06.565Z,90.90
2017-08-26T12:45:37.095Z,91.00
2017-08-26T12:48:07.550Z,91.20
2017-08-26T12:50:38.013Z,91.10
2017-08-26T12:53:08.386Z,91.00
2017-08-26T12:55:38.888Z,91.00
2017-08-26T12:58:09.383Z,91.10
2017-08-26T13:00:39.986Z,91.10
2017-08-26T13:03:10.614Z,91.20
2017-08-26T13:05:41.042Z,91.10
2017-08-26T13:08:11.455Z,90.90
2017-08-26T13:10:41.932Z,91.00
2017-08-26T13:13:12.402Z,91.30
2017-08-26T13:15:43.024Z,91.30
2017-08-26T13:18:13.645Z,91.40
2017-08-26T13:20:44.301Z,91.20
2017-08-26T13:23:14.880Z,91.40
2017-08-26T13:25:45.480Z,91.60
2017-08-26T13:28:16.050Z,91.20
2017-08-26T13:30:47.051Z,91.40
2017-08-26T13:33:17.644Z,91.40
2017-08-26T13:35:48.116Z,91.40
2017-08-26T13:38:18.771Z,91.50
2017-08-26T13:40:49.393Z,91.20
2017-08-26T13:43:20.029Z,91.30
2017-08-26T13:45:50.665Z,91.10
2017-08-26T13:48:21.290Z,91.00
2017-08-26T13:50:51.944Z,90.70
2017-08-26T13:53:22.563Z,90.90
2017-08-26T13:55:53.098Z,90.90
2017-08-26T13:58:25.436Z,90.90
2017-08-26T14:00:56.036Z,91.10
2017-08-26T14:03:26.640Z,91.50
2017-08-26T14:05:57.283Z,91.10
2017-08-26T14:08:27.848Z,91.10
2017-08-26T14:10:58.435Z,91.20
2017-08-26T14:13:29.035Z,91.10
2017-08-26T14:16:00.334Z,91.10
2017-08-26T14:18:31.031Z,91.10
2017-08-26T14:21:01.583Z,91.30
2017-08-26T14:23:32.076Z,91.20
2017-08-26T14:26:02.753Z,91.10
2017-08-26T14:28:33.353Z,91.40
2017-08-26T14:31:04.943Z,91.10
2017-08-26T14:33:35.261Z,91.10
2017-08-26T14:36:05.736Z,91.20
2017-08-26T14:38:36.157Z,91.20
2017-08-26T14:41:06.751Z,91.30
2017-08-26T14:43:37.188Z,91.30
2017-08-26T14:46:07.780Z,91.10
2017-08-26T14:48:38.270Z,91.20
2017-08-26T14:51:08.872Z,91.10
2017-08-26T14:53:40.260Z,91.10
2017-08-26T14:56:10.739Z,91.10
2017-08-26T14:58:41.210Z,91.20
2017-08-26T15:01:11.955Z,91.40
2017-08-26T15:03:42.512Z,91.20
2017-08-26T15:06:13.115Z,91.30
2017-08-26T15:08:43.710Z,91.30
2017-08-26T15:11:14.351Z,91.30
2017-08-26T15:13:45.000Z,90.80
2017-08-26T15:16:15.418Z,91.10
2017-08-26T15:18:45.621Z,91.20
2017-08-26T15:21:15.875Z,91.30
2017-08-26T15:23:46.350Z,91.40
2017-08-26T15:26:16.614Z,91.20
2017-08-26T15:28:46.956Z,91.10
2017-08-26T15:31:17.541Z,91.20
2017-08-26T15:33:48.208Z,91.20
2017-08-26T15:36:18.728Z,91.20
2017-08-26T15:38:49.271Z,91.10
2017-08-26T15:41:19.817Z,91.40
2017-08-26T15:43:50.242Z,91.50
2017-08-26T15:46:20.733Z,91.10
2017-08-26T15:48:51.445Z,91.00
2017-08-26T15:51:21.966Z,90.90
2017-08-26T15:53:52.483Z,90.90
2017-08-26T15:56:22.978Z,91.00
2017-08-26T15:58:53.920Z,91.10
2017-08-26T16:01:24.557Z,90.90
2017-08-26T16:03:55.124Z,90.60
2017-08-26T16:06:25.622Z,90.80
2017-08-26T16:08:58.496Z,90.90
2017-08-26T16:11:29.050Z,90.90
2017-08-26T16:13:59.532Z,90.90
2017-08-26T16:16:31.683Z,90.90
2017-08-26T16:19:02.298Z,90.60
2017-08-26T16:21:32.902Z,91.00
2017-08-26T16:24:24.302Z,90.90
2017-08-26T16:27:10.919Z,91.00
2017-08-26T16:32:20.277Z,90.70
2017-08-26T16:37:38.234Z,90.70
2017-08-26T16:40:10.018Z,90.80
2017-08-26T16:42:40.446Z,90.50
2017-08-26T16:45:10.915Z,90.70
2017-08-26T16:47:43.738Z,90.30
2017-08-26T16:50:14.227Z,90.20
2017-08-26T16:52:44.477Z,90.20
2017-08-26T16:55:14.982Z,90.10
2017-08-26T16:57:45.437Z,90.50
2017-08-26T17:00:16.047Z,90.00
2017-08-26T17:02:46.589Z,89.70
2017-08-26T17:05:17.197Z,89.30
2017-08-26T17:07:47.733Z,89.50
2017-08-26T17:10:18.322Z,89.00
2017-08-26T17:12:48.905Z,89.60
2017-08-26T17:15:19.267Z,89.80
2017-08-26T17:17:49.915Z,90.00
2017-08-26T17:20:20.413Z,90.10
2017-08-26T17:22:51.024Z,90.00
2017-08-26T17:25:21.594Z,90.30
2017-08-26T17:27:52.447Z,90.30
2017-08-26T17:30:23.082Z,90.20
2017-08-26T17:32:54.004Z,90.20
2017-08-26T17:35:24.610Z,90.20
2017-08-26T17:37:55.161Z,90.30
2017-08-26T17:40:26.373Z,90.50
2017-08-26T17:42:56.880Z,90.40
2017-08-26T17:45:27.354Z,88.60
2017-08-26T17:47:57.864Z,88.00
2017-08-26T17:50:33.423Z,89.00
2017-08-26T17:53:03.706Z,89.20
2017-08-26T17:55:34.320Z,89.70
2017-08-26T17:58:04.967Z,90.10
2017-08-26T18:00:35.595Z,90.10
2017-08-26T18:03:06.252Z,90.20
2017-08-26T18:05:36.980Z,90.20
2017-08-26T18:08:07.588Z,90.40
2017-08-26T18:10:38.194Z,90.50
2017-08-26T18:13:08.806Z,90.50
2017-08-26T18:15:39.331Z,90.50
2017-08-26T18:18:09.739Z,89.80
2017-08-26T18:20:40.230Z,89.30
2017-08-26T18:23:11.452Z,89.70
2017-08-26T18:25:41.890Z,89.70
2017-08-26T18:28:12.315Z,90.00
2017-08-26T18:30:42.657Z,90.00
2017-08-26T18:33:14.351Z,90.50
2017-08-26T18:35:44.964Z,90.50
2017-08-26T18:38:15.597Z,90.60
2017-08-26T18:40:46.202Z,90.60
2017-08-26T18:43:16.818Z,90.80
2017-08-26T18:45:47.198Z,90.90
2017-08-26T18:48:17.725Z,91.10
2017-08-26T18:50:48.170Z,91.20
2017-08-26T18:53:18.615Z,91.40
2017-08-26T18:55:49.054Z,91.60
2017-08-26T18:58:19.477Z,91.60
2017-08-26T19:00:49.891Z,91.40
2017-08-26T19:03:23.023Z,91.50
2017-08-26T19:05:53.652Z,91.50
2017-08-26T19:08:24.197Z,91.40
2017-08-26T19:10:55.374Z,91.30
2017-08-26T19:13:26.000Z,91.30
2017-08-26T19:15:56.452Z,91.20
2017-08-26T19:18:27.044Z,91.20
2017-08-26T19:20:57.637Z,91.20
2017-08-26T19:23:28.166Z,91.40
2017-08-26T19:25:58.763Z,91.10
2017-08-26T19:28:29.356Z,91.20
2017-08-26T19:30:59.933Z,91.60
2017-08-26T19:33:30.774Z,91.60
2017-08-26T19:36:01.363Z,91.80
2017-08-26T19:38:32.635Z,92.20
2017-08-26T19:41:03.899Z,91.70
2017-08-26T19:43:34.524Z,91.70
2017-08-26T19:46:04.887Z,92.00
2017-08-26T19:48:35.406Z,92.00
2017-08-26T19:51:05.903Z,92.40
2017-08-26T19:53:37.014Z,92.50
2017-08-26T19:56:07.369Z,92.40
2017-08-26T19:58:37.911Z,92.80
2017-08-26T20:01:08.516Z,92.60
2017-08-26T20:03:39.059Z,92.40
2017-08-26T20:06:10.296Z,92.00
2017-08-26T20:08:41.677Z,91.70
2017-08-26T20:11:12.304Z,91.60
2017-08-26T20:13:42.946Z,91.20
2017-08-26T20:16:13.515Z,91.10
2017-08-26T20:18:43.967Z,91.20
2017-08-26T20:21:14.436Z,91.30
2017-08-26T20:23:44.969Z,91.60
2017-08-26T20:26:15.398Z,91.80
2017-08-26T20:28:45.964Z,92.00
2017-08-26T20:31:16.562Z,91.90
2017-08-26T20:33:47.569Z,91.90
2017-08-26T20:36:18.119Z,91.90
2017-08-26T20:38:48.897Z,92.00
2017-08-26T20:41:19.484Z,92.10
2017-08-26T20:43:50.234Z,92.20
2017-08-26T20:46:20.825Z,92.40
2017-08-26T20:48:51.384Z,92.50
2017-08-26T20:51:21.698Z,92.60
2017-08-26T20:53:52.091Z,92.70
2017-08-26T20:56:22.655Z,93.00
2017-08-26T20:58:54.294Z,92.60
2017-08-26T21:01:24.946Z,92.40
2017-08-26T21:03:55.519Z,92.20
2017-08-26T21:06:26.228Z,92.00
2017-08-26T21:08:57.488Z,91.50
2017-08-26T21:11:27.926Z,91.50
2017-08-26T21:13:58.468Z,91.40
2017-08-26T21:16:28.946Z,91.30
2017-08-26T21:18:59.482Z,91.30
2017-08-26T21:21:30.709Z,91.60
2017-08-26T21:24:01.107Z,91.50
2017-08-26T21:26:31.522Z,91.50
2017-08-26T21:29:01.916Z,91.60
2017-08-26T21:31:32.390Z,91.60
2017-08-26T21:34:03.194Z,91.50
2017-08-26T21:36:33.724Z,91.50
2017-08-26T21:39:04.351Z,91.40
2017-08-26T21:41:34.866Z,91.40
2017-08-26T21:44:05.335Z,91.40
2017-08-26T21:46:35.908Z,91.40
2017-08-26T21:49:06.368Z,91.30
2017-08-26T21:51:36.966Z,91.20
2017-08-26T21:54:07.544Z,91.00
2017-08-26T21:56:37.999Z,91.30
2017-08-26T21:59:08.524Z,91.20
2017-08-26T22:01:39.010Z,91.30
2017-08-26T22:04:09.682Z,91.30
2017-08-26T22:06:40.128Z,91.40
2017-08-26T22:09:10.679Z,91.70
2017-08-26T22:11:41.191Z,91.90
2017-08-26T22:14:11.874Z,92.10
2017-08-26T22:16:42.470Z,92.30
2017-08-26T22:19:12.978Z,92.30
2017-08-26T22:21:43.548Z,92.60
2017-08-26T22:24:13.906Z,92.60
2017-08-26T22:26:44.560Z,92.50
2017-08-26T22:29:15.000Z,92.60
2017-08-26T22:31:45.498Z,92.70
2017-08-26T22:34:16.046Z,92.90
2017-08-26T22:36:46.533Z,92.90
2017-08-26T22:39:17.048Z,92.90
2017-08-26T22:41:47.595Z,92.90
2017-08-26T22:44:17.992Z,92.80
2017-08-26T22:46:48.461Z,92.90
2017-08-26T22:49:18.925Z,93.00
2017-08-26T22:51:49.454Z,93.20
2017-08-26T22:54:19.879Z,93.30
2017-08-26T22:56:50.358Z,93.40
2017-08-26T22:59:20.926Z,93.90
2017-08-26T23:01:51.539Z,93.80
2017-08-26T23:04:22.106Z,93.70
2017-08-26T23:06:52.691Z,93.70
2017-08-26T23:09:23.146Z,93.60
2017-08-26T23:11:53.542Z,93.40
2017-08-26T23:14:24.492Z,93.30
2017-08-26T23:16:54.870Z,93.00
2017-08-26T23:19:25.263Z,92.80
2017-08-26T23:21:55.591Z,92.40
2017-08-26T23:24:25.925Z,92.20
2017-08-26T23:26:56.551Z,92.20
2017-08-26T23:29:27.054Z,92.40
2017-08-26T23:31:57.498Z,92.40
2017-08-26T23:34:28.513Z,92.80
2017-08-26T23:36:59.116Z,92.10
2017-08-26T23:39:29.727Z,91.80
2017-08-26T23:42:00.394Z,91.80
2017-08-26T23:44:31.056Z,91.80
2017-08-26T23:47:01.593Z,91.90
2017-08-26T23:49:32.078Z,91.70
2017-08-26T23:52:02.606Z,91.70
2017-08-26T23:54:33.212Z,91.60
2017-08-26T23:57:03.668Z,91.60
2017-08-26T23:59:35.024Z,91.40
